Clearfield, PA

2:04 PM EDT on September 25, 2016 (GMT -0400)
Clearfield | | Change Station

Elev 1127 ft 41.02 °N, 78.46 °W | Updated 4 minutes ago

Clear
Clear
68.9 °F
Feels Like 68.9 °F
N
1.0
Wind Variable Wind from NNW
Gusts 9.0 mph

Today
High -- | Low -- °F
--% Chance of Precip.
Yesterday
High -- | Low -- °F
Precip. -- in
Pressure 30.20 in
Visibility 10.0 miles
Clouds Clear
Dew Point 49 °F
Humidity 49%
Rainfall 0.00 in
Snow Depth Not available.
7:04 AM 7:05 PM
Waning Crescent, 26% visible
METAR KFIG 251754Z AUTO 00000KT 10SM CLR 18/07 A3020 RMK AO2 SLP227 T01830067 10194 20050 56018 $
Pressure 30.20 in
Visibility 10.0 miles
Clouds Clear
Dew Point 49 °F
Humidity 49%
Rainfall 0.00 in
Snow Depth Not available.
7:04 AM 7:05 PM
Waning Crescent, 26% visible
METAR KFIG 251754Z AUTO 00000KT 10SM CLR 18/07 A3020 RMK AO2 SLP227 T01830067 10194 20050 56018 $

10-Day Weather Forecast

Almanac

Astronomy

Sep. 25, 2016 Rise Set
Actual Time
Civil Twilight
Nautical Twilight
Astronomical Twilight
Moon
Length of Visible Light
Length of Day
Tomorrow will be .
, % of the Moon is Illuminated

Today's Extremes

State Highs State Lows

Community

WunderPhotos

Upload Photos

1,941,681 photos uploaded!

WunderBlog® & News

Nearby

Air Quality

  Air Quality AQ Index Pollutant
Not available.

Snow Depth

Station Depth Elevation

Earthquake Activity

City Distance Mag. Time & Date
Minimum magnitude displayed is 2.5.

Coastal Water Temperatures

Place Temperature

Stations

Nearby Weather Stations

Station Location Temp. Windchill Dew Point Humidity Wind Precip. Elev Updated Type
                   

Watches & Warnings

There are currently no watches in effect.